sensor_id;sensor_type;location;lat;lon;timestamp;pressure;altitude;pressure_sealevel;temperature;humidity
24031;BME280;12240;51.142;22.486;2023-03-21T00:00:59;99172.50;;;7.96;100.00
24031;BME280;12240;51.142;22.486;2023-03-21T00:03:32;99168.88;;;7.97;100.00
24031;BME280;12240;51.142;22.486;2023-03-21T00:06:07;99204.16;;;8.16;100.00
24031;BME280;12240;51.142;22.486;2023-03-21T00:08:38;99157.28;;;7.88;100.00
24031;BME280;12240;51.142;22.486;2023-03-21T00:11:08;99160.34;;;7.93;100.00
24031;BME280;12240;51.142;22.486;2023-03-21T00:13:37;99162.44;;;7.90;100.00
24031;BME280;12240;51.142;22.486;2023-03-21T00:16:17;99159.78;;;7.90;100.00
24031;BME280;12240;51.142;22.486;2023-03-21T00:18:58;99192.72;;;8.16;100.00
24031;BME280;12240;51.142;22.486;2023-03-21T00:21:26;99150.19;;;7.89;100.00
24031;BME280;12240;51.142;22.486;2023-03-21T00:24:19;99188.81;;;8.10;100.00
24031;BME280;12240;51.142;22.486;2023-03-21T00:26:49;99153.81;;;7.97;100.00
24031;BME280;12240;51.142;22.486;2023-03-21T00:29:18;99188.66;;;8.21;100.00
24031;BME280;12240;51.142;22.486;2023-03-21T00:31:46;99180.69;;;8.21;100.00
24031;BME280;12240;51.142;22.486;2023-03-21T00:34:15;99195.06;;;8.19;100.00
24031;BME280;12240;51.142;22.486;2023-03-21T00:36:53;99196.75;;;8.10;100.00
24031;BME280;12240;51.142;22.486;2023-03-21T00:39:22;99190.50;;;8.02;100.00
24031;BME280;12240;51.142;22.486;2023-03-21T00:41:51;99185.63;;;7.97;100.00
24031;BME280;12240;51.142;22.486;2023-03-21T00:44:19;99145.16;;;7.76;100.00
24031;BME280;12240;51.142;22.486;2023-03-21T00:46:50;99187.28;;;7.98;100.00
24031;BME280;12240;51.142;22.486;2023-03-21T00:49:34;99183.94;;;7.96;100.00
24031;BME280;12240;51.142;22.486;2023-03-21T00:52:05;99135.41;;;7.67;100.00
24031;BME280;12240;51.142;22.486;2023-03-21T00:54:54;99176.28;;;8.03;100.00
24031;BME280;12240;51.142;22.486;2023-03-21T00:57:22;99185.75;;;8.05;100.00
24031;BME280;12240;51.142;22.486;2023-03-21T01:00:07;99182.25;;;8.14;100.00
24031;BME280;12240;51.142;22.486;2023-03-21T01:02:38;99178.91;;;8.12;100.00
24031;BME280;12240;51.142;22.486;2023-03-21T01:05:38;99179.84;;;8.21;100.00
24031;BME280;12240;51.142;22.486;2023-03-21T01:08:25;99177.66;;;8.16;100.00
24031;BME280;12240;51.142;22.486;2023-03-21T01:11:12;99142.63;;;7.84;100.00
24031;BME280;12240;51.142;22.486;2023-03-21T01:13:40;99178.91;;;8.03;100.00
24031;BME280;12240;51.142;22.486;2023-03-21T01:16:24;99177.78;;;8.05;100.00
24031;BME280;12240;51.142;22.486;2023-03-21T01:18:52;99171.38;;;7.98;100.00
24031;BME280;12240;51.142;22.486;2023-03-21T01:21:21;99166.34;;;7.95;100.00
24031;BME280;12240;51.142;22.486;2023-03-21T01:23:50;99178.06;;;8.02;100.00
24031;BME280;12240;51.142;22.486;2023-03-21T01:26:18;99174.72;;;8.00;100.00
24031;BME280;12240;51.142;22.486;2023-03-21T01:28:46;99173.22;;;7.98;100.00
24031;BME280;12240;51.142;22.486;2023-03-21T01:31:15;99130.66;;;7.71;100.00
24031;BME280;12240;51.142;22.486;2023-03-21T01:33:44;99132.34;;;7.72;100.00
24031;BME280;12240;51.142;22.486;2023-03-21T01:36:22;99178.38;;;7.99;100.00
24031;BME280;12240;51.142;22.486;2023-03-21T01:38:55;99178.63;;;7.96;100.00
24031;BME280;12240;51.142;22.486;2023-03-21T01:41:40;99172.75;;;7.93;100.00
24031;BME280;12240;51.142;22.486;2023-03-21T01:44:18;99179.19;;;7.90;100.00
24031;BME280;12240;51.142;22.486;2023-03-21T01:46:49;99139.03;;;7.66;100.00
24031;BME280;12240;51.142;22.486;2023-03-21T01:49:41;99166.50;;;7.84;100.00
24031;BME280;12240;51.142;22.486;2023-03-21T01:52:37;99190.78;;;7.99;100.00
24031;BME280;12240;51.142;22.486;2023-03-21T01:55:26;99185.03;;;8.03;100.00
24031;BME280;12240;51.142;22.486;2023-03-21T01:58:27;99191.34;;;8.02;100.00
24031;BME280;12240;51.142;22.486;2023-03-21T02:01:05;99180.03;;;8.00;100.00
24031;BME280;12240;51.142;22.486;2023-03-21T02:03:43;99184.06;;;8.04;100.00
24031;BME280;12240;51.142;22.486;2023-03-21T02:06:34;99183.38;;;8.02;100.00
24031;BME280;12240;51.142;22.486;2023-03-21T02:09:21;99175.97;;;7.96;100.00
24031;BME280;12240;51.142;22.486;2023-03-21T02:11:52;99142.69;;;7.65;100.00
24031;BME280;12240;51.142;22.486;2023-03-21T02:14:22;99180.88;;;7.91;100.00
24031;BME280;12240;51.142;22.486;2023-03-21T02:17:43;99188.41;;;7.86;100.00
24031;BME280;12240;51.142;22.486;2023-03-21T02:40:44;99194.69;;;7.85;100.00
24031;BME280;12240;51.142;22.486;2023-03-21T02:51:46;99191.75;;;7.88;100.00
24031;BME280;12240;51.142;22.486;2023-03-21T02:54:20;99189.69;;;7.82;100.00
24031;BME280;12240;51.142;22.486;2023-03-21T02:57:09;99076.13;;;7.01;100.00
24031;BME280;12240;51.142;22.486;2023-03-21T02:59:38;99158.00;;;7.62;100.00
24031;BME280;12240;51.142;22.486;2023-03-21T03:02:27;99145.44;;;7.54;100.00
24031;BME280;12240;51.142;22.486;2023-03-21T03:04:55;99192.88;;;7.86;100.00
24031;BME280;12240;51.142;22.486;2023-03-21T03:19:31;99200.94;;;7.84;100.00
24031;BME280;12240;51.142;22.486;2023-03-21T03:22:35;99203.59;;;7.84;100.00
24031;BME280;12240;51.142;22.486;2023-03-21T03:25:10;99218.84;;;7.82;100.00
24031;BME280;12240;51.142;22.486;2023-03-21T03:27:55;99195.94;;;7.81;100.00
24031;BME280;12240;51.142;22.486;2023-03-21T03:30:25;99106.66;;;7.25;100.00
24031;BME280;12240;51.142;22.486;2023-03-21T03:33:08;99172.50;;;7.67;100.00
24031;BME280;12240;51.142;22.486;2023-03-21T03:35:37;99191.22;;;7.75;100.00
24031;BME280;12240;51.142;22.486;2023-03-21T03:38:07;99200.69;;;7.78;100.00
24031;BME280;12240;51.142;22.486;2023-03-21T03:40:41;99159.25;;;7.58;100.00
24031;BME280;12240;51.142;22.486;2023-03-21T03:43:47;99162.34;;;7.53;100.00
24031;BME280;12240;51.142;22.486;2023-03-21T03:49:22;99201.53;;;7.78;100.00
24031;BME280;12240;51.142;22.486;2023-03-21T03:54:39;99203.63;;;7.75;100.00
24031;BME280;12240;51.142;22.486;2023-03-21T03:57:09;99193.44;;;7.70;100.00
24031;BME280;12240;51.142;22.486;2023-03-21T03:59:44;99201.25;;;7.72;100.00
24031;BME280;12240;51.142;22.486;2023-03-21T04:02:42;99167.75;;;7.42;100.00
24031;BME280;12240;51.142;22.486;2023-03-21T04:05:10;99209.59;;;7.67;100.00
24031;BME280;12240;51.142;22.486;2023-03-21T04:07:39;99163.28;;;7.43;100.00
24031;BME280;12240;51.142;22.486;2023-03-21T04:10:08;99209.72;;;7.66;100.00
24031;BME280;12240;51.142;22.486;2023-03-21T04:12:41;99203.16;;;7.60;100.00
24031;BME280;12240;51.142;22.486;2023-03-21T04:15:24;99212.38;;;7.66;100.00
24031;BME280;12240;51.142;22.486;2023-03-21T04:17:58;99209.88;;;7.64;100.00
24031;BME280;12240;51.142;22.486;2023-03-21T04:20:27;99171.38;;;7.41;100.00
24031;BME280;12240;51.142;22.486;2023-03-21T04:23:10;99217.81;;;7.64;100.00
24031;BME280;12240;51.142;22.486;2023-03-21T04:25:44;99206.25;;;7.56;100.00
24031;BME280;12240;51.142;22.486;2023-03-21T04:28:29;99213.22;;;7.66;100.00
24031;BME280;12240;51.142;22.486;2023-03-21T04:31:06;99202.34;;;7.60;100.00
24031;BME280;12240;51.142;22.486;2023-03-21T04:33:53;99203.44;;;7.57;100.00
24031;BME280;12240;51.142;22.486;2023-03-21T04:36:23;99175.00;;;7.40;100.00
24031;BME280;12240;51.142;22.486;2023-03-21T04:38:58;99212.09;;;7.69;100.00
24031;BME280;12240;51.142;22.486;2023-03-21T04:41:29;99217.41;;;7.69;100.00
24031;BME280;12240;51.142;22.486;2023-03-21T04:43:57;99184.78;;;7.49;100.00
24031;BME280;12240;51.142;22.486;2023-03-21T04:46:25;99210.72;;;7.65;100.00
24031;BME280;12240;51.142;22.486;2023-03-21T04:48:54;99213.53;;;7.63;100.00
24031;BME280;12240;51.142;22.486;2023-03-21T04:51:23;99219.91;;;7.61;100.00
24031;BME280;12240;51.142;22.486;2023-03-21T04:53:52;99176.94;;;7.38;100.00
24031;BME280;12240;51.142;22.486;2023-03-21T04:56:29;99219.63;;;7.64;100.00
24031;BME280;12240;51.142;22.486;2023-03-21T04:59:13;99219.53;;;7.65;100.00
24031;BME280;12240;51.142;22.486;2023-03-21T05:01:42;99215.31;;;7.63;100.00
24031;BME280;12240;51.142;22.486;2023-03-21T05:04:13;99219.22;;;7.59;100.00
24031;BME280;12240;51.142;22.486;2023-03-21T05:06:42;99219.06;;;7.60;100.00
24031;BME280;12240;51.142;22.486;2023-03-21T05:09:11;99209.31;;;7.51;100.00
24031;BME280;12240;51.142;22.486;2023-03-21T05:11:41;99224.38;;;7.60;100.00
24031;BME280;12240;51.142;22.486;2023-03-21T05:14:15;99234.41;;;7.57;100.00
24031;BME280;12240;51.142;22.486;2023-03-21T05:16:45;99219.22;;;7.49;100.00
24031;BME280;12240;51.142;22.486;2023-03-21T05:19:25;99230.94;;;7.56;100.00
24031;BME280;12240;51.142;22.486;2023-03-21T05:22:10;99232.22;;;7.62;100.00
24031;BME280;12240;51.142;22.486;2023-03-21T05:24:40;99223.41;;;7.61;100.00
24031;BME280;12240;51.142;22.486;2023-03-21T05:27:20;99183.91;;;7.39;100.00
24031;BME280;12240;51.142;22.486;2023-03-21T05:30:07;99190.59;;;7.43;100.00
24031;BME280;12240;51.142;22.486;2023-03-21T05:32:38;99223.28;;;7.63;100.00
24031;BME280;12240;51.142;22.486;2023-03-21T05:35:10;99175.13;;;7.39;100.00
24031;BME280;12240;51.142;22.486;2023-03-21T05:37:38;99189.63;;;7.54;100.00
24031;BME280;12240;51.142;22.486;2023-03-21T05:40:08;99218.53;;;7.66;100.00
24031;BME280;12240;51.142;22.486;2023-03-21T05:42:41;99226.47;;;7.76;100.00
24031;BME280;12240;51.142;22.486;2023-03-21T05:45:17;99216.31;;;7.71;100.00
24031;BME280;12240;51.142;22.486;2023-03-21T05:47:45;99232.75;;;7.84;100.00
24031;BME280;12240;51.142;22.486;2023-03-21T05:50:14;99235.28;;;7.95;100.00
24031;BME280;12240;51.142;22.486;2023-03-21T05:52:50;99238.09;;;7.94;100.00
24031;BME280;12240;51.142;22.486;2023-03-21T05:55:19;99235.00;;;7.89;100.00
24031;BME280;12240;51.142;22.486;2023-03-21T05:57:49;99241.16;;;7.99;100.00
24031;BME280;12240;51.142;22.486;2023-03-21T06:00:23;99240.03;;;8.01;100.00
24031;BME280;12240;51.142;22.486;2023-03-21T06:03:12;99237.38;;;7.92;100.00
24031;BME280;12240;51.142;22.486;2023-03-21T06:06:07;99240.31;;;7.98;100.00
24031;BME280;12240;51.142;22.486;2023-03-21T06:08:40;99240.88;;;8.02;100.00
24031;BME280;12240;51.142;22.486;2023-03-21T06:11:28;99245.75;;;7.97;100.00
24031;BME280;12240;51.142;22.486;2023-03-21T06:14:15;99223.81;;;7.76;100.00
24031;BME280;12240;51.142;22.486;2023-03-21T06:16:49;99246.56;;;7.88;100.00
24031;BME280;12240;51.142;22.486;2023-03-21T06:19:17;99241.44;;;7.96;100.00
24031;BME280;12240;51.142;22.486;2023-03-21T06:22:06;99243.09;;;7.97;100.00
24031;BME280;12240;51.142;22.486;2023-03-21T06:24:38;99238.22;;;7.92;100.00
24031;BME280;12240;51.142;22.486;2023-03-21T06:27:06;99214.34;;;7.73;100.00
24031;BME280;12240;51.142;22.486;2023-03-21T06:29:47;99242.81;;;7.90;100.00
24031;BME280;12240;51.142;22.486;2023-03-21T06:32:16;99235.16;;;7.87;100.00
24031;BME280;12240;51.142;22.486;2023-03-21T06:34:45;99249.66;;;8.02;100.00
24031;BME280;12240;51.142;22.486;2023-03-21T06:37:15;99259.69;;;8.08;100.00
24031;BME280;12240;51.142;22.486;2023-03-21T06:39:45;99260.00;;;8.15;100.00
24031;BME280;12240;51.142;22.486;2023-03-21T06:42:14;99200.69;;;8.06;100.00
24031;BME280;12240;51.142;22.486;2023-03-21T06:44:43;99224.44;;;8.27;100.00
24031;BME280;12240;51.142;22.486;2023-03-21T06:47:14;99266.41;;;8.51;100.00
24031;BME280;12240;51.142;22.486;2023-03-21T06:49:45;99258.75;;;8.48;100.00
24031;BME280;12240;51.142;22.486;2023-03-21T06:52:13;99223.59;;;8.27;100.00
24031;BME280;12240;51.142;22.486;2023-03-21T06:54:42;99267.53;;;8.58;100.00
24031;BME280;12240;51.142;22.486;2023-03-21T06:57:14;99266.31;;;8.43;100.00
24031;BME280;12240;51.142;22.486;2023-03-21T06:59:42;99278.56;;;8.44;100.00
24031;BME280;12240;51.142;22.486;2023-03-21T07:02:16;99265.84;;;8.38;100.00
24031;BME280;12240;51.142;22.486;2023-03-21T07:04:57;99236.94;;;8.15;100.00
24031;BME280;12240;51.142;22.486;2023-03-21T07:07:28;99270.22;;;8.39;100.00
24031;BME280;12240;51.142;22.486;2023-03-21T07:09:57;99266.59;;;8.30;100.00
24031;BME280;12240;51.142;22.486;2023-03-21T07:12:29;99265.44;;;8.33;100.00
24031;BME280;12240;51.142;22.486;2023-03-21T07:15:20;99268.53;;;8.47;100.00
24031;BME280;12240;51.142;22.486;2023-03-21T07:17:48;99275.78;;;8.55;100.00
24031;BME280;12240;51.142;22.486;2023-03-21T07:20:17;99268.78;;;8.63;100.00
24031;BME280;12240;51.142;22.486;2023-03-21T07:22:45;99209.75;;;8.42;100.00
24031;BME280;12240;51.142;22.486;2023-03-21T07:25:14;99273.91;;;8.84;100.00
24031;BME280;12240;51.142;22.486;2023-03-21T07:27:44;99268.56;;;8.93;100.00
24031;BME280;12240;51.142;22.486;2023-03-21T07:30:13;99221.38;;;8.78;100.00
24031;BME280;12240;51.142;22.486;2023-03-21T07:32:41;99262.94;;;9.06;100.00
24031;BME280;12240;51.142;22.486;2023-03-21T07:35:12;99273.50;;;9.15;100.00
24031;BME280;12240;51.142;22.486;2023-03-21T07:37:42;99241.91;;;8.85;100.00
24031;BME280;12240;51.142;22.486;2023-03-21T07:40:16;99253.03;;;8.98;100.00
24031;BME280;12240;51.142;22.486;2023-03-21T07:42:44;99274.38;;;9.06;100.00
24031;BME280;12240;51.142;22.486;2023-03-21T07:45:22;99267.25;;;9.07;100.00
24031;BME280;12240;51.142;22.486;2023-03-21T07:47:53;99267.94;;;9.09;100.00
24031;BME280;12240;51.142;22.486;2023-03-21T07:50:24;99258.63;;;8.95;100.00
24031;BME280;12240;51.142;22.486;2023-03-21T07:52:52;99274.13;;;9.00;100.00
24031;BME280;12240;51.142;22.486;2023-03-21T07:55:21;99270.59;;;9.09;100.00
24031;BME280;12240;51.142;22.486;2023-03-21T07:57:50;99218.47;;;8.71;100.00
24031;BME280;12240;51.142;22.486;2023-03-21T08:00:20;99245.84;;;8.72;100.00
24031;BME280;12240;51.142;22.486;2023-03-21T08:02:54;99227.88;;;8.47;100.00
24031;BME280;12240;51.142;22.486;2023-03-21T08:05:37;99260.94;;;8.71;100.00
24031;BME280;12240;51.142;22.486;2023-03-21T08:08:07;99271.34;;;8.92;100.00
24031;BME280;12240;51.142;22.486;2023-03-21T08:10:36;99235.09;;;8.64;100.00
24031;BME280;12240;51.142;22.486;2023-03-21T08:13:04;99265.34;;;8.90;100.00
24031;BME280;12240;51.142;22.486;2023-03-21T08:15:32;99266.19;;;8.81;100.00
24031;BME280;12240;51.142;22.486;2023-03-21T08:18:01;99278.72;;;8.98;100.00
24031;BME280;12240;51.142;22.486;2023-03-21T08:20:29;99233.09;;;8.85;100.00
24031;BME280;12240;51.142;22.486;2023-03-21T08:22:57;99274.03;;;9.19;100.00
24031;BME280;12240;51.142;22.486;2023-03-21T08:25:26;99273.34;;;9.17;100.00
24031;BME280;12240;51.142;22.486;2023-03-21T08:27:54;99276.69;;;9.19;100.00
24031;BME280;12240;51.142;22.486;2023-03-21T08:30:27;99261.22;;;9.14;100.00
24031;BME280;12240;51.142;22.486;2023-03-21T08:32:58;99262.56;;;9.18;100.00
24031;BME280;12240;51.142;22.486;2023-03-21T08:35:29;99258.91;;;9.29;100.00
24031;BME280;12240;51.142;22.486;2023-03-21T08:37:58;99272.88;;;9.31;100.00
24031;BME280;12240;51.142;22.486;2023-03-21T08:40:31;99234.50;;;9.16;100.00
24031;BME280;12240;51.142;22.486;2023-03-21T08:43:00;99257.63;;;9.33;100.00
24031;BME280;12240;51.142;22.486;2023-03-21T08:45:29;99271.91;;;9.32;100.00
24031;BME280;12240;51.142;22.486;2023-03-21T08:47:57;99223.34;;;9.03;100.00
24031;BME280;12240;51.142;22.486;2023-03-21T08:50:26;99278.56;;;9.09;100.00
24031;BME280;12240;51.142;22.486;2023-03-21T08:52:56;99225.63;;;8.98;100.00
24031;BME280;12240;51.142;22.486;2023-03-21T08:55:24;99238.72;;;9.09;100.00
24031;BME280;12240;51.142;22.486;2023-03-21T08:57:53;99276.06;;;8.98;100.00
24031;BME280;12240;51.142;22.486;2023-03-21T09:00:22;99278.13;;;9.13;100.00
24031;BME280;12240;51.142;22.486;2023-03-21T09:02:50;99286.47;;;9.18;100.00
24031;BME280;12240;51.142;22.486;2023-03-21T09:05:22;99279.97;;;9.40;100.00
24031;BME280;12240;51.142;22.486;2023-03-21T09:07:53;99281.91;;;9.48;100.00
24031;BME280;12240;51.142;22.486;2023-03-21T09:10:22;99282.78;;;9.38;100.00
24031;BME280;12240;51.142;22.486;2023-03-21T09:12:53;99244.28;;;9.15;100.00
24031;BME280;12240;51.142;22.486;2023-03-21T09:15:25;99233.72;;;9.06;100.00
24031;BME280;12240;51.142;22.486;2023-03-21T09:17:54;99285.53;;;9.19;100.00
24031;BME280;12240;51.142;22.486;2023-03-21T09:20:26;99292.34;;;9.22;100.00
24031;BME280;12240;51.142;22.486;2023-03-21T09:22:58;99281.72;;;9.22;100.00
24031;BME280;12240;51.142;22.486;2023-03-21T09:25:27;99242.63;;;9.05;100.00
24031;BME280;12240;51.142;22.486;2023-03-21T09:27:59;99243.72;;;9.21;100.00
24031;BME280;12240;51.142;22.486;2023-03-21T09:30:28;99294.13;;;9.31;100.00
24031;BME280;12240;51.142;22.486;2023-03-21T09:33:03;99298.19;;;9.35;100.00
24031;BME280;12240;51.142;22.486;2023-03-21T09:35:33;99302.31;;;9.20;100.00
24031;BME280;12240;51.142;22.486;2023-03-21T09:38:02;99302.06;;;8.94;100.00
24031;BME280;12240;51.142;22.486;2023-03-21T09:46:26;99323.94;;;8.69;100.00
24031;BME280;12240;51.142;22.486;2023-03-21T09:49:05;99285.28;;;8.48;100.00
24031;BME280;12240;51.142;22.486;2023-03-21T09:51:42;99311.41;;;8.43;100.00
24031;BME280;12240;51.142;22.486;2023-03-21T09:54:37;99308.59;;;8.54;100.00
24031;BME280;12240;51.142;22.486;2023-03-21T09:59:53;99281.19;;;8.05;100.00
24031;BME280;12240;51.142;22.486;2023-03-21T10:05:18;99319.06;;;8.36;100.00
24031;BME280;12240;51.142;22.486;2023-03-21T10:08:17;99279.28;;;8.36;100.00
24031;BME280;12240;51.142;22.486;2023-03-21T10:10:53;99312.09;;;8.54;100.00
24031;BME280;12240;51.142;22.486;2023-03-21T10:13:33;99277.84;;;8.22;100.00
24031;BME280;12240;51.142;22.486;2023-03-21T10:16:21;99282.78;;;8.37;100.00
24031;BME280;12240;51.142;22.486;2023-03-21T10:18:53;99320.59;;;8.58;100.00
24031;BME280;12240;51.142;22.486;2023-03-21T10:21:25;99318.50;;;8.61;100.00
24031;BME280;12240;51.142;22.486;2023-03-21T10:24:25;99322.97;;;8.61;100.00
24031;BME280;12240;51.142;22.486;2023-03-21T10:26:55;99297.81;;;8.55;100.00
24031;BME280;12240;51.142;22.486;2023-03-21T10:29:28;99291.13;;;8.61;100.00
24031;BME280;12240;51.142;22.486;2023-03-21T10:31:57;99312.44;;;8.88;100.00
24031;BME280;12240;51.142;22.486;2023-03-21T10:34:40;99323.31;;;9.04;100.00
24031;BME280;12240;51.142;22.486;2023-03-21T10:37:11;99317.75;;;8.97;100.00
24031;BME280;12240;51.142;22.486;2023-03-21T10:39:44;99286.19;;;8.85;100.00
24031;BME280;12240;51.142;22.486;2023-03-21T10:42:24;99318.97;;;9.12;100.00
24031;BME280;12240;51.142;22.486;2023-03-21T10:44:55;99268.63;;;9.11;100.00
24031;BME280;12240;51.142;22.486;2023-03-21T10:47:26;99281.16;;;9.28;100.00
24031;BME280;12240;51.142;22.486;2023-03-21T10:50:12;99256.53;;;9.26;100.00
24031;BME280;12240;51.142;22.486;2023-03-21T10:52:54;99310.00;;;9.95;100.00
24031;BME280;12240;51.142;22.486;2023-03-21T10:55:30;99310.25;;;10.28;100.00
24031;BME280;12240;51.142;22.486;2023-03-21T10:58:09;99264.16;;;10.45;100.00
24031;BME280;12240;51.142;22.486;2023-03-21T11:03:06;99298.31;;;10.76;100.00
24031;BME280;12240;51.142;22.486;2023-03-21T11:05:37;99303.59;;;10.50;100.00
24031;BME280;12240;51.142;22.486;2023-03-21T11:08:14;99258.03;;;10.00;100.00
24031;BME280;12240;51.142;22.486;2023-03-21T11:11:09;99303.91;;;10.29;100.00
24031;BME280;12240;51.142;22.486;2023-03-21T11:13:42;99249.75;;;9.86;100.00
24031;BME280;12240;51.142;22.486;2023-03-21T11:16:43;99302.31;;;10.36;100.00
24031;BME280;12240;51.142;22.486;2023-03-21T11:19:38;99292.31;;;10.56;100.00
24031;BME280;12240;51.142;22.486;2023-03-21T11:22:06;99290.28;;;10.68;100.00
24031;BME280;12240;51.142;22.486;2023-03-21T11:24:35;99250.53;;;10.31;100.00
24031;BME280;12240;51.142;22.486;2023-03-21T11:27:07;99291.22;;;10.84;100.00
24031;BME280;12240;51.142;22.486;2023-03-21T11:29:38;99288.47;;;10.94;100.00
24031;BME280;12240;51.142;22.486;2023-03-21T11:32:33;99283.38;;;11.08;100.00
24031;BME280;12240;51.142;22.486;2023-03-21T11:37:50;99273.34;;;10.77;100.00
24031;BME280;12240;51.142;22.486;2023-03-21T11:40:32;99277.19;;;11.08;100.00
24031;BME280;12240;51.142;22.486;2023-03-21T11:43:26;99271.03;;;11.33;100.00
24031;BME280;12240;51.142;22.486;2023-03-21T11:46:00;99264.25;;;11.88;100.00
24031;BME280;12240;51.142;22.486;2023-03-21T11:48:44;99226.22;;;11.86;100.00
24031;BME280;12240;51.142;22.486;2023-03-21T11:54:26;99253.28;;;12.79;100.00
24031;BME280;12240;51.142;22.486;2023-03-21T12:00:06;99243.75;;;11.97;100.00
24031;BME280;12240;51.142;22.486;2023-03-21T12:06:21;99253.88;;;11.85;100.00
24031;BME280;12240;51.142;22.486;2023-03-21T12:09:20;99255.53;;;11.70;100.00
24031;BME280;12240;51.142;22.486;2023-03-21T12:12:11;99266.88;;;11.72;100.00
24031;BME280;12240;51.142;22.486;2023-03-21T12:20:58;99258.13;;;10.87;100.00
24031;BME280;12240;51.142;22.486;2023-03-21T12:26:30;99210.31;;;11.19;100.00
24031;BME280;12240;51.142;22.486;2023-03-21T12:44:12;99221.25;;;10.48;100.00
24031;BME280;12240;51.142;22.486;2023-03-21T12:49:34;99250.00;;;10.27;100.00
24031;BME280;12240;51.142;22.486;2023-03-21T12:52:15;99231.22;;;10.11;100.00
24031;BME280;12240;51.142;22.486;2023-03-21T12:55:14;99254.66;;;10.69;100.00
24031;BME280;12240;51.142;22.486;2023-03-21T12:58:07;99249.31;;;10.69;100.00
24031;BME280;12240;51.142;22.486;2023-03-21T13:03:31;99199.22;;;10.38;100.00
24031;BME280;12240;51.142;22.486;2023-03-21T13:06:14;99202.53;;;10.40;100.00
24031;BME280;12240;51.142;22.486;2023-03-21T13:11:22;99193.19;;;10.36;100.00
24031;BME280;12240;51.142;22.486;2023-03-21T13:16:57;99232.13;;;10.89;100.00
24031;BME280;12240;51.142;22.486;2023-03-21T13:19:57;99229.75;;;10.52;100.00
24031;BME280;12240;51.142;22.486;2023-03-21T13:22:29;99238.28;;;10.38;100.00
24031;BME280;12240;51.142;22.486;2023-03-21T13:27:36;99220.22;;;10.49;100.00
24031;BME280;12240;51.142;22.486;2023-03-21T13:30:25;99237.78;;;10.60;100.00
24031;BME280;12240;51.142;22.486;2023-03-21T13:33:06;99236.91;;;10.77;100.00
24031;BME280;12240;51.142;22.486;2023-03-21T13:35:39;99222.47;;;10.88;100.00
24031;BME280;12240;51.142;22.486;2023-03-21T13:38:21;99233.19;;;10.96;100.00
24031;BME280;12240;51.142;22.486;2023-03-21T13:41:12;99223.53;;;10.95;100.00
24031;BME280;12240;51.142;22.486;2023-03-21T13:51:46;99224.19;;;11.64;100.00
24031;BME280;12240;51.142;22.486;2023-03-21T13:57:04;99220.88;;;11.86;100.00
24031;BME280;12240;51.142;22.486;2023-03-21T13:59:43;99228.22;;;11.84;100.00
24031;BME280;12240;51.142;22.486;2023-03-21T14:05:13;99222.91;;;11.42;100.00
24031;BME280;12240;51.142;22.486;2023-03-21T14:07:50;99222.41;;;11.05;100.00
24031;BME280;12240;51.142;22.486;2023-03-21T14:10:33;99223.03;;;10.66;100.00
24031;BME280;12240;51.142;22.486;2023-03-21T14:13:05;99205.63;;;10.53;100.00
24031;BME280;12240;51.142;22.486;2023-03-21T14:15:57;99238.44;;;10.80;100.00
24031;BME280;12240;51.142;22.486;2023-03-21T14:18:27;99234.88;;;10.71;100.00
24031;BME280;12240;51.142;22.486;2023-03-21T14:21:22;99238.50;;;10.70;100.00
24031;BME280;12240;51.142;22.486;2023-03-21T14:24:06;99188.03;;;10.35;100.00
24031;BME280;12240;51.142;22.486;2023-03-21T14:26:50;99211.28;;;10.50;100.00
24031;BME280;12240;51.142;22.486;2023-03-21T14:29:32;99228.91;;;10.51;100.00
24031;BME280;12240;51.142;22.486;2023-03-21T14:32:02;99204.00;;;10.35;100.00
24031;BME280;12240;51.142;22.486;2023-03-21T14:34:34;99228.44;;;10.56;100.00
24031;BME280;12240;51.142;22.486;2023-03-21T14:37:09;99216.06;;;10.47;100.00
24031;BME280;12240;51.142;22.486;2023-03-21T14:39:38;99218.75;;;10.29;100.00
24031;BME280;12240;51.142;22.486;2023-03-21T14:42:11;99231.16;;;10.38;100.00
24031;BME280;12240;51.142;22.486;2023-03-21T14:44:47;99212.38;;;10.22;100.00
24031;BME280;12240;51.142;22.486;2023-03-21T14:47:26;99176.97;;;10.04;100.00
24031;BME280;12240;51.142;22.486;2023-03-21T14:49:55;99221.78;;;10.34;100.00
24031;BME280;12240;51.142;22.486;2023-03-21T14:52:30;99198.84;;;10.33;100.00
24031;BME280;12240;51.142;22.486;2023-03-21T14:55:10;99222.75;;;10.51;100.00
24031;BME280;12240;51.142;22.486;2023-03-21T14:57:41;99230.84;;;10.41;100.00
24031;BME280;12240;51.142;22.486;2023-03-21T15:00:24;99208.59;;;10.25;100.00
24031;BME280;12240;51.142;22.486;2023-03-21T15:02:55;99227.34;;;10.23;100.00
24031;BME280;12240;51.142;22.486;2023-03-21T15:05:31;99237.41;;;10.12;100.00
24031;BME280;12240;51.142;22.486;2023-03-21T15:08:11;99235.06;;;10.09;100.00
24031;BME280;12240;51.142;22.486;2023-03-21T15:10:41;99237.00;;;10.07;100.00
24031;BME280;12240;51.142;22.486;2023-03-21T15:13:15;99234.41;;;9.97;100.00
24031;BME280;12240;51.142;22.486;2023-03-21T15:15:46;99233.25;;;9.65;100.00
24031;BME280;12240;51.142;22.486;2023-03-21T15:18:24;99200.44;;;9.29;100.00
24031;BME280;12240;51.142;22.486;2023-03-21T15:20:58;99237.91;;;9.35;100.00
24031;BME280;12240;51.142;22.486;2023-03-21T15:23:37;99237.44;;;9.40;100.00
24031;BME280;12240;51.142;22.486;2023-03-21T15:26:11;99242.84;;;9.48;100.00
24031;BME280;12240;51.142;22.486;2023-03-21T15:28:41;99236.25;;;9.52;100.00
24031;BME280;12240;51.142;22.486;2023-03-21T15:31:17;99240.50;;;9.45;100.00
24031;BME280;12240;51.142;22.486;2023-03-21T15:33:47;99244.63;;;9.57;100.00
24031;BME280;12240;51.142;22.486;2023-03-21T15:36:24;99239.25;;;9.39;100.00